Terminal Aerodrome Forecast
Issued by NWS

Current Version | Previous Version | Graphics & Text | Print | Product List | Glossary On
Versions: 1 2 3 4 5 6 7 8 9 10 11 12 13 14 15 16 17 18 19 20 21 22 23 24 25
000
FTUS41 KPBZ 211700
TAFMGW
TAF
KMGW 211730Z 2118/2218 25005KT 2SM -SHRA SCT006 OVC015
      TEMPO 2118/2120 2SM -SHRA BKN006
     FM212300 29005KT P6SM VCSH BKN020
     FM221000 33008KT P6SM BKN015 OVC025
     FM221500 33009KT P6SM BKN025=

USA.gov is the U.S. government's official web portal to all federal, state and local government web resources and services.